logo
Search for airport 
image banner adimage banner adimage banner ad
image banner ad

CYNE - Norway House

Located in Norway House, Canada

ICAO - CYNE, IATA - YNE

Data provided by Airmate  

General information

Coordinates: N53°57'30" W97°50'39"
Elevation is 734 feet MSL.
Magnetic variation is 2.9855° East
View others Airports in Manitoba

Operational data

Special qualification required
Current time UTC:
Current local time:
Weather
METAR: CYNE 011200Z AUTO 05004KT 360V110 9SM OVC005 07/ A3022 RMK DP MISG SLP244
TAF: TAF AMD CYNE 011011Z 0110/0119 04005KT P6SM OVC012 TEMPO 0110/0116 5SM -RA BR OVC007 PROB40 0110/0116 1 1/2SM BR OVC005 FM011600 06012KT P6SM BKN015 OVC100 TEMPO 0116/0119 SCT015 BKN100 RMK FCST BASED ON AUTO OBS. DP SENSOR INOP. NXT FCST BY 011300Z
View NOTAMs / SUP AIP / TFR affecting this airport [VIEW]
Communications frequencies: [VIEW]

Runways:

RWY identifierQFULength (ft)Width (ft)SurfaceLDA (ft)
0660°3902105GRAVE3902
24240°3902105GRAVE3902

Airport contact information

Address: Norway House Canada

Satellite view of CYNE